createdAt,value
2019-06-10T00:00:55.290Z,68.67
2019-06-10T00:01:55.469Z,68.57
2019-06-10T00:02:55.581Z,69.58
2019-06-10T00:03:55.505Z,68.87
2019-06-10T00:04:55.545Z,69.78
2019-06-10T00:05:55.651Z,69.27
2019-06-10T00:06:55.767Z,69.38
2019-06-10T00:07:55.831Z,69.31
2019-06-10T00:08:55.972Z,68.50
2019-06-10T00:09:56.104Z,69.10
2019-06-10T00:10:54.755Z,69.78
2019-06-10T00:11:54.796Z,69.07
2019-06-10T00:12:55.474Z,69.01
2019-06-10T00:13:54.710Z,68.80
2019-06-10T00:14:54.712Z,68.50
2019-06-10T00:16:04.641Z,69.71
2019-06-10T00:16:54.735Z,70.02
2019-06-10T00:18:17.240Z,70.22
2019-06-10T00:18:55.648Z,69.61
2019-06-10T00:19:54.640Z,69.71
2019-06-10T00:20:54.631Z,69.81
2019-06-10T00:21:54.621Z,69.51
2019-06-10T00:22:54.641Z,70.42
2019-06-10T00:23:54.598Z,70.02
2019-06-10T00:24:54.590Z,69.61
2019-06-10T00:25:54.575Z,70.12
2019-06-10T00:26:54.564Z,70.22
2019-06-10T00:27:54.586Z,70.02
2019-06-10T00:28:54.542Z,69.92
2019-06-10T00:29:54.538Z,70.25
2019-06-10T00:30:54.518Z,71.33
2019-06-10T00:31:54.519Z,71.47
2019-06-10T00:32:54.518Z,71.16
2019-06-10T00:33:54.490Z,70.36
2019-06-10T00:34:54.482Z,70.32
2019-06-10T00:35:54.468Z,71.06
2019-06-10T00:36:54.467Z,70.86
2019-06-10T00:37:54.467Z,70.96
2019-06-10T00:38:54.433Z,70.96
2019-06-10T00:39:54.421Z,71.16
2019-06-10T00:40:54.413Z,71.06
2019-06-10T00:41:54.416Z,70.96
2019-06-10T00:42:54.413Z,71.26
2019-06-10T00:43:54.381Z,71.47
2019-06-10T00:44:54.369Z,71.77
2019-06-10T00:45:54.364Z,71.57
2019-06-10T00:46:54.373Z,70.86
2019-06-10T00:48:08.601Z,71.67
2019-06-10T00:48:55.327Z,71.16
2019-06-10T00:49:54.316Z,70.65
2019-06-10T00:50:54.308Z,71.06
2019-06-10T00:51:54.302Z,71.16
2019-06-10T00:52:54.301Z,71.47
2019-06-10T00:53:54.278Z,70.96
2019-06-10T00:54:54.259Z,71.47
2019-06-10T00:55:54.263Z,71.06
2019-06-10T00:56:54.240Z,71.40
2019-06-10T00:57:54.251Z,71.26
2019-06-10T00:58:54.217Z,72.21
2019-06-10T00:59:54.210Z,72.21
2019-06-10T01:00:54.219Z,72.41
2019-06-10T01:01:54.191Z,71.70
2019-06-10T01:02:54.202Z,71.67
2019-06-10T01:03:54.176Z,72.52
2019-06-10T01:04:54.168Z,72.28
2019-06-10T01:05:54.145Z,72.92
2019-06-10T01:06:54.134Z,72.52
2019-06-10T01:07:54.121Z,72.17
2019-06-10T01:08:54.131Z,72.21
2019-06-10T01:09:54.122Z,72.52
2019-06-10T01:10:54.090Z,72.01
2019-06-10T01:11:54.080Z,72.21
2019-06-10T01:12:54.071Z,72.31
2019-06-10T01:13:54.086Z,72.01
2019-06-10T01:14:54.053Z,72.01
2019-06-10T01:15:54.037Z,71.70
2019-06-10T01:16:54.028Z,72.01
2019-06-10T01:17:54.014Z,71.91
2019-06-10T01:18:54.041Z,72.21
2019-06-10T01:19:53.995Z,73.02
2019-06-10T01:20:53.991Z,73.02
2019-06-10T01:21:53.976Z,73.63
2019-06-10T01:22:53.965Z,73.22
2019-06-10T01:23:53.963Z,73.32
2019-06-10T01:24:53.968Z,73.32
2019-06-10T01:25:53.931Z,73.32
2019-06-10T01:26:53.921Z,73.22
2019-06-10T01:27:53.912Z,74.24
2019-06-10T01:28:53.899Z,73.53
2019-06-10T01:29:53.907Z,74.04
2019-06-10T01:30:53.887Z,74.54
2019-06-10T01:31:53.867Z,74.17
2019-06-10T01:32:53.869Z,74.48
2019-06-10T01:33:53.847Z,73.63
2019-06-10T01:34:53.853Z,73.22
2019-06-10T01:35:53.828Z,74.37
2019-06-10T01:36:53.816Z,74.13
2019-06-10T01:37:53.803Z,74.24
2019-06-10T01:38:53.799Z,74.33
2019-06-10T01:39:53.823Z,74.84
2019-06-10T01:40:53.771Z,74.74
2019-06-10T01:41:53.774Z,74.54
2019-06-10T01:42:53.749Z,73.73
2019-06-10T01:43:53.742Z,74.27
2019-06-10T01:44:53.733Z,74.84
2019-06-10T01:45:53.737Z,74.54
2019-06-10T01:46:53.713Z,75.15
2019-06-10T01:47:53.697Z,74.24
2019-06-10T01:48:53.687Z,75.15
2019-06-10T01:49:53.678Z,75.28
2019-06-10T01:50:53.693Z,75.55
2019-06-10T01:51:53.654Z,75.55
2019-06-10T01:52:53.642Z,76.06
2019-06-10T01:53:53.652Z,76.50
2019-06-10T01:54:53.626Z,75.85
2019-06-10T01:55:53.648Z,74.24
2019-06-10T01:56:53.608Z,75.35
2019-06-10T01:57:53.588Z,75.55
2019-06-10T01:58:53.579Z,74.48
2019-06-10T01:59:53.592Z,75.76
2019-06-10T02:00:53.579Z,75.89
2019-06-10T02:01:53.547Z,75.59
2019-06-10T02:02:53.538Z,75.69
2019-06-10T02:03:53.531Z,75.28
2019-06-10T02:04:53.517Z,74.68
2019-06-10T02:05:53.533Z,74.54
2019-06-10T02:06:53.497Z,74.88
2019-06-10T02:07:53.487Z,74.37
2019-06-10T02:08:53.485Z,75.18
2019-06-10T02:09:53.461Z,75.25
2019-06-10T02:10:53.467Z,74.57
2019-06-10T02:11:53.438Z,74.37
2019-06-10T02:12:53.436Z,74.48
2019-06-10T02:13:53.419Z,74.48
2019-06-10T02:14:53.408Z,74.77
2019-06-10T02:15:53.417Z,74.68
2019-06-10T02:16:53.387Z,74.68
2019-06-10T02:17:53.377Z,74.37
2019-06-10T02:19:00.297Z,74.68
2019-06-10T02:19:54.357Z,75.59
2019-06-10T02:20:53.365Z,75.28
2019-06-10T02:21:53.337Z,75.49
2019-06-10T02:22:53.338Z,75.49
2019-06-10T02:23:53.312Z,75.69
2019-06-10T02:24:53.300Z,75.59
2019-06-10T02:25:53.289Z,75.28
2019-06-10T02:26:53.298Z,74.27
2019-06-10T02:27:53.285Z,75.49
2019-06-10T02:28:53.256Z,74.41
2019-06-10T02:29:53.248Z,74.51
2019-06-10T02:30:55.672Z,74.51
2019-06-10T02:31:53.300Z,74.68
2019-06-10T02:32:53.219Z,74.48
2019-06-10T02:33:53.210Z,74.61
2019-06-10T02:35:08.062Z,75.01
2019-06-10T02:35:54.193Z,74.30
2019-06-10T02:36:53.836Z,74.30
2019-06-10T02:37:53.957Z,74.91
2019-06-10T02:38:54.035Z,74.30
2019-06-10T02:39:54.133Z,73.70
2019-06-10T02:40:54.001Z,74.41
2019-06-10T02:41:53.704Z,74.41
2019-06-10T02:42:53.971Z,73.49
2019-06-10T02:43:53.531Z,74.30
2019-06-10T02:44:54.087Z,74.41
2019-06-10T02:45:53.266Z,74.71
2019-06-10T02:46:54.396Z,74.61
2019-06-10T02:47:53.445Z,74.41
2019-06-10T02:48:54.493Z,75.12
2019-06-10T02:50:02.491Z,75.32
2019-06-10T02:50:54.395Z,75.32
2019-06-10T02:51:53.737Z,75.73
2019-06-10T02:52:53.181Z,76.03
2019-06-10T02:53:53.771Z,76.27
2019-06-10T02:54:53.704Z,75.82
2019-06-10T02:55:53.926Z,76.78
2019-06-10T02:56:54.138Z,75.76
2019-06-10T02:57:53.360Z,75.73
2019-06-10T02:58:53.600Z,76.27
2019-06-10T02:59:54.460Z,76.37
2019-06-10T03:00:54.635Z,77.59
2019-06-10T03:01:53.602Z,76.98
2019-06-10T03:02:53.152Z,77.18
2019-06-10T03:03:54.201Z,77.95
2019-06-10T03:04:53.594Z,77.89
2019-06-10T03:05:53.696Z,77.28
2019-06-10T03:06:54.334Z,77.59
2019-06-10T03:07:53.414Z,77.18
2019-06-10T03:08:54.882Z,77.79
2019-06-10T03:09:53.766Z,77.69
2019-06-10T03:10:54.703Z,76.87
2019-06-10T03:11:53.534Z,77.99
2019-06-10T03:12:52.908Z,78.09
2019-06-10T03:13:53.163Z,78.30
2019-06-10T03:14:52.763Z,78.70
2019-06-10T03:15:52.789Z,78.91
2019-06-10T03:16:52.945Z,78.30
2019-06-10T03:17:52.770Z,77.79
2019-06-10T03:18:52.722Z,77.38
2019-06-10T03:19:53.626Z,77.59
2019-06-10T03:20:52.955Z,77.99
2019-06-10T03:21:52.687Z,78.19
2019-06-10T03:22:52.698Z,77.38
2019-06-10T03:23:53.105Z,77.99
2019-06-10T03:24:52.654Z,77.99
2019-06-10T03:25:52.796Z,78.60
2019-06-10T03:26:52.645Z,78.60
2019-06-10T03:27:52.647Z,77.79
2019-06-10T03:28:52.640Z,77.59
2019-06-10T03:29:52.749Z,77.79
2019-06-10T03:30:58.075Z,78.50
2019-06-10T03:31:55.131Z,77.38
2019-06-10T03:32:55.554Z,76.67
2019-06-10T03:33:54.286Z,77.45
2019-06-10T03:34:54.761Z,78.40
2019-06-10T03:35:52.717Z,77.38
2019-06-10T03:36:53.524Z,77.79
2019-06-10T03:37:52.833Z,77.65
2019-06-10T03:38:53.711Z,78.40
2019-06-10T03:39:53.148Z,78.30
2019-06-10T03:40:52.565Z,77.99
2019-06-10T03:41:52.860Z,77.28
2019-06-10T03:42:52.462Z,77.75
2019-06-10T03:43:53.071Z,78.30
2019-06-10T03:44:52.662Z,78.19
2019-06-10T03:45:53.069Z,79.00
2019-06-10T03:46:52.469Z,79.17
2019-06-10T03:47:52.768Z,78.70
2019-06-10T03:48:52.692Z,79.41
2019-06-10T03:49:55.965Z,79.61
2019-06-10T03:50:52.489Z,79.21
2019-06-10T03:51:52.922Z,78.91
2019-06-10T03:52:52.539Z,79.11
2019-06-10T03:53:53.138Z,78.91
2019-06-10T03:54:52.586Z,79.00
2019-06-10T03:55:52.667Z,79.21
2019-06-10T03:56:52.315Z,79.00
2019-06-10T03:57:52.728Z,79.00
2019-06-10T03:58:52.298Z,78.70
2019-06-10T03:59:52.795Z,79.41
2019-06-10T04:00:52.389Z,78.87
2019-06-10T04:01:52.978Z,79.61
2019-06-10T04:02:53.216Z,79.11
2019-06-10T04:03:52.981Z,78.40
2019-06-10T04:04:52.464Z,79.82
2019-06-10T04:05:52.704Z,79.61
2019-06-10T04:06:53.130Z,80.02
2019-06-10T04:07:52.704Z,79.82
2019-06-10T04:08:52.403Z,79.00
2019-06-10T04:09:52.609Z,78.60
2019-06-10T04:10:52.213Z,79.00
2019-06-10T04:11:53.241Z,79.31
2019-06-10T04:12:52.409Z,78.97
2019-06-10T04:13:53.500Z,79.72
2019-06-10T04:14:52.250Z,77.59
2019-06-10T04:15:53.440Z,79.41
2019-06-10T04:16:52.589Z,79.51
2019-06-10T04:17:53.042Z,77.48
2019-06-10T04:18:53.467Z,79.61
2019-06-10T04:20:07.545Z,79.51
2019-06-10T04:20:53.053Z,80.12
2019-06-10T04:21:53.194Z,80.53
2019-06-10T04:22:52.356Z,80.02
2019-06-10T04:23:52.788Z,80.02
2019-06-10T04:24:52.135Z,80.12
2019-06-10T04:25:52.707Z,80.12
2019-06-10T04:26:52.183Z,79.92
2019-06-10T04:27:52.489Z,79.51
2019-06-10T04:28:52.982Z,79.72
2019-06-10T04:29:52.410Z,80.32
2019-06-10T04:30:53.562Z,80.22
2019-06-10T04:31:52.387Z,80.22
2019-06-10T04:32:52.876Z,79.72
2019-06-10T04:33:52.431Z,79.92
2019-06-10T04:34:52.959Z,79.51
2019-06-10T04:35:52.083Z,78.91
2019-06-10T04:36:52.539Z,79.92
2019-06-10T04:37:52.094Z,80.02
2019-06-10T04:38:52.541Z,80.53
2019-06-10T04:39:52.998Z,80.43
2019-06-10T04:40:52.531Z,80.63
2019-06-10T04:41:53.073Z,81.44
2019-06-10T04:42:52.554Z,80.79
2019-06-10T04:43:53.238Z,81.13
2019-06-10T04:44:52.578Z,81.24
2019-06-10T04:45:52.784Z,81.34
2019-06-10T04:46:52.110Z,81.44
2019-06-10T04:47:52.432Z,81.60
2019-06-10T04:48:53.242Z,80.43
2019-06-10T04:49:52.246Z,81.40
2019-06-10T04:50:53.455Z,80.22
2019-06-10T04:51:52.389Z,80.12
2019-06-10T04:52:52.897Z,81.50
2019-06-10T04:53:52.493Z,82.05
2019-06-10T04:54:52.754Z,82.35
2019-06-10T04:55:52.251Z,82.01
2019-06-10T04:56:52.903Z,81.24
2019-06-10T04:57:52.113Z,82.05
2019-06-10T04:58:52.560Z,82.01
2019-06-10T04:59:52.988Z,80.02
2019-06-10T05:00:52.406Z,80.39
2019-06-10T05:01:53.090Z,82.31
2019-06-10T05:02:52.223Z,81.81
2019-06-10T05:03:52.647Z,80.59
2019-06-10T05:04:53.182Z,80.19
2019-06-10T05:05:52.603Z,80.59
2019-06-10T05:06:52.650Z,79.47
2019-06-10T05:07:52.075Z,81.50
2019-06-10T05:08:53.595Z,82.01
2019-06-10T05:09:52.517Z,81.60
2019-06-10T05:10:52.935Z,81.71
2019-06-10T05:11:52.230Z,81.60
2019-06-10T05:12:52.568Z,79.07
2019-06-10T05:13:53.263Z,81.50
2019-06-10T05:14:52.653Z,81.67
2019-06-10T05:15:52.699Z,82.11
2019-06-10T05:16:51.471Z,80.79
2019-06-10T05:17:52.671Z,81.60
2019-06-10T05:18:54.536Z,81.20
2019-06-10T05:19:53.050Z,81.16
2019-06-10T05:20:58.245Z,80.99
2019-06-10T05:21:52.536Z,82.01
2019-06-10T05:22:52.854Z,81.57
2019-06-10T05:23:52.195Z,81.81
2019-06-10T05:24:52.736Z,82.01
2019-06-10T05:25:52.631Z,82.82
2019-06-10T05:26:52.719Z,82.28
2019-06-10T05:27:52.268Z,80.79
2019-06-10T05:28:52.473Z,80.19
2019-06-10T05:29:52.740Z,80.35
2019-06-10T05:30:53.190Z,80.45
2019-06-10T05:31:52.269Z,81.57
2019-06-10T05:32:52.386Z,81.87
2019-06-10T05:33:53.037Z,81.97
2019-06-10T05:34:52.794Z,80.65
2019-06-10T05:35:52.935Z,80.76
2019-06-10T05:36:52.542Z,80.35
2019-06-10T05:37:52.755Z,80.55
2019-06-10T05:38:52.626Z,80.55
2019-06-10T05:39:52.698Z,80.65
2019-06-10T05:40:52.096Z,80.35
2019-06-10T05:41:53.073Z,79.94
2019-06-10T05:42:52.843Z,79.85
2019-06-10T05:43:52.286Z,78.83
2019-06-10T05:44:52.459Z,79.74
2019-06-10T05:45:53.010Z,79.34
2019-06-10T05:46:52.819Z,79.20
2019-06-10T05:47:53.121Z,78.73
2019-06-10T05:48:52.652Z,78.83
2019-06-10T05:49:52.912Z,79.50
2019-06-10T05:51:00.096Z,79.30
2019-06-10T05:51:52.688Z,78.69
2019-06-10T05:52:52.027Z,79.20
2019-06-10T05:53:52.816Z,79.00
2019-06-10T05:54:52.145Z,78.79
2019-06-10T05:55:52.969Z,79.00
2019-06-10T05:56:52.164Z,79.10
2019-06-10T05:57:53.198Z,80.41
2019-06-10T05:58:52.469Z,79.91
2019-06-10T05:59:52.304Z,80.52
2019-06-10T06:00:53.024Z,80.38
2019-06-10T06:01:53.793Z,79.20
2019-06-10T06:02:52.263Z,79.67
2019-06-10T06:03:53.010Z,79.30
2019-06-10T06:04:53.036Z,79.50
2019-06-10T06:05:52.476Z,77.75
2019-06-10T06:06:53.186Z,79.60
2019-06-10T06:08:02.264Z,79.26
2019-06-10T06:08:53.465Z,79.87
2019-06-10T06:09:53.164Z,80.31
2019-06-10T06:10:52.755Z,81.18
2019-06-10T06:11:52.397Z,80.68
2019-06-10T06:12:52.681Z,79.06
2019-06-10T06:13:52.254Z,79.57
2019-06-10T06:14:52.768Z,80.27
2019-06-10T06:15:52.825Z,76.12
2019-06-10T06:16:53.160Z,78.45
2019-06-10T06:18:03.959Z,77.00
2019-06-10T06:18:52.673Z,80.47
2019-06-10T06:19:53.298Z,79.67
2019-06-10T06:20:52.595Z,78.86
2019-06-10T06:21:52.867Z,78.21
2019-06-10T06:22:52.223Z,76.73
2019-06-10T06:23:52.856Z,76.23
2019-06-10T06:24:52.299Z,76.09
2019-06-10T06:25:53.190Z,75.79
2019-06-10T06:26:53.271Z,76.29
2019-06-10T06:27:52.428Z,77.97
2019-06-10T06:28:53.259Z,79.13
2019-06-10T06:29:52.469Z,79.22
2019-06-10T06:30:52.713Z,78.52
2019-06-10T06:31:52.340Z,78.08
2019-06-10T06:32:53.071Z,78.48
2019-06-10T06:33:52.649Z,79.08
2019-06-10T06:34:52.668Z,78.68
2019-06-10T06:35:52.453Z,76.66
2019-06-10T06:36:52.799Z,75.55
2019-06-10T06:37:53.970Z,75.51
2019-06-10T06:38:52.879Z,73.90
2019-06-10T06:39:52.344Z,73.79
2019-06-10T06:40:53.712Z,75.31
2019-06-10T06:41:52.724Z,74.19
2019-06-10T06:42:52.538Z,74.50
2019-06-10T06:43:52.791Z,70.15
2019-06-10T06:44:52.521Z,71.17
2019-06-10T06:45:52.991Z,74.97
2019-06-10T06:46:50.482Z,76.18
2019-06-10T06:47:52.748Z,75.68
2019-06-10T06:48:53.006Z,74.87
2019-06-10T06:49:52.943Z,75.17
2019-06-10T06:51:01.736Z,73.96
2019-06-10T06:51:56.122Z,73.75
2019-06-10T06:53:18.823Z,74.77
2019-06-10T06:53:55.780Z,75.48
2019-06-10T06:54:52.883Z,75.57
2019-06-10T06:55:53.566Z,75.78
2019-06-10T06:56:53.448Z,75.27
2019-06-10T06:57:52.700Z,76.48
2019-06-10T06:58:52.457Z,76.79
2019-06-10T06:59:52.487Z,77.19
2019-06-10T07:01:03.795Z,76.25
2019-06-10T07:01:52.521Z,77.06
2019-06-10T07:02:52.778Z,75.27
2019-06-10T07:03:53.268Z,73.46
2019-06-10T07:04:52.430Z,75.24
2019-06-10T07:05:50.299Z,74.13
2019-06-10T07:06:54.972Z,75.20
2019-06-10T07:07:52.720Z,75.71
2019-06-10T07:09:01.487Z,72.38
2019-06-10T07:09:52.638Z,74.69
2019-06-10T07:10:52.269Z,76.01
2019-06-10T07:11:50.826Z,74.29
2019-06-10T07:12:52.272Z,73.65
2019-06-10T07:13:50.193Z,74.36
2019-06-10T07:14:52.466Z,74.96
2019-06-10T07:15:50.213Z,75.27
2019-06-10T07:16:52.774Z,74.16
2019-06-10T07:17:52.535Z,71.80
2019-06-10T07:18:50.591Z,71.94
2019-06-10T07:19:52.713Z,73.92
2019-06-10T07:20:50.140Z,70.79
2019-06-10T07:22:07.450Z,72.81
2019-06-10T07:22:53.303Z,71.80
2019-06-10T07:23:52.814Z,73.52
2019-06-10T07:24:52.645Z,74.83
2019-06-10T07:25:50.067Z,73.72
2019-06-10T07:26:54.267Z,74.90
2019-06-10T07:27:52.566Z,75.40
2019-06-10T07:28:50.037Z,73.68
2019-06-10T07:29:52.750Z,68.65
2019-06-10T07:30:52.825Z,67.63
2019-06-10T07:31:53.561Z,67.16
2019-06-10T07:32:49.992Z,69.25
2019-06-10T07:33:52.328Z,66.63
2019-06-10T07:34:52.310Z,69.85
2019-06-10T07:35:52.347Z,71.26
2019-06-10T07:36:52.029Z,71.47
2019-06-10T07:37:52.167Z,70.36
2019-06-10T07:38:53.568Z,71.37
2019-06-10T07:39:52.186Z,69.05
2019-06-10T07:40:49.904Z,69.55
2019-06-10T07:41:52.663Z,70.56
2019-06-10T07:42:49.900Z,69.15
2019-06-10T07:43:52.130Z,66.73
2019-06-10T07:44:49.862Z,66.02
2019-06-10T07:45:53.201Z,70.15
2019-06-10T07:46:49.873Z,70.46
2019-06-10T07:47:52.175Z,69.95
2019-06-10T07:48:53.522Z,69.15
2019-06-10T07:49:52.268Z,69.55
2019-06-10T07:50:49.799Z,69.15
2019-06-10T07:51:52.205Z,66.33
2019-06-10T07:52:49.806Z,68.24
2019-06-10T07:53:52.318Z,69.85
2019-06-10T07:54:49.756Z,70.12
2019-06-10T07:55:49.760Z,66.02
2019-06-10T07:56:50.700Z,69.45
2019-06-10T07:57:49.742Z,70.15
2019-06-10T07:58:49.722Z,68.81
2019-06-10T07:59:52.106Z,68.41
2019-06-10T08:00:49.706Z,69.21
2019-06-10T08:01:54.225Z,69.32
2019-06-10T08:02:52.884Z,69.62
2019-06-10T08:03:49.675Z,70.02
2019-06-10T08:04:49.653Z,71.03
2019-06-10T08:05:52.370Z,70.62
2019-06-10T08:06:50.694Z,69.72
2019-06-10T08:07:49.639Z,66.50
2019-06-10T08:08:49.620Z,68.01
2019-06-10T08:09:49.607Z,69.32
2019-06-10T08:10:49.592Z,70.19
2019-06-10T08:11:49.597Z,69.99
2019-06-10T08:12:49.588Z,69.89
2019-06-10T08:13:49.556Z,71.10
2019-06-10T08:14:49.549Z,72.57
2019-06-10T08:15:49.536Z,71.97
2019-06-10T08:16:49.530Z,68.85
2019-06-10T08:17:49.511Z,68.11
2019-06-10T08:19:16.114Z,66.33
2019-06-10T08:19:51.843Z,66.50
2019-06-10T08:20:49.481Z,69.52
2019-06-10T08:21:49.693Z,67.98
2019-06-10T08:22:54.393Z,67.98
2019-06-10T08:23:50.481Z,66.84
2019-06-10T08:24:49.465Z,65.13
2019-06-10T08:25:53.667Z,63.32
2019-06-10T08:26:50.429Z,61.91
2019-06-10T08:27:49.433Z,62.59
2019-06-10T08:28:49.462Z,62.19
2019-06-10T08:29:51.159Z,62.39
2019-06-10T08:30:52.949Z,60.48
2019-06-10T08:31:49.965Z,61.88
2019-06-10T08:32:53.282Z,61.55
2019-06-10T08:33:53.118Z,63.49
2019-06-10T08:34:49.343Z,61.38
2019-06-10T08:35:59.167Z,61.96
2019-06-10T08:36:53.579Z,62.26
2019-06-10T08:37:49.303Z,61.86
2019-06-10T08:38:49.304Z,63.76
2019-06-10T08:39:49.305Z,62.36
2019-06-10T08:40:49.327Z,62.96
2019-06-10T08:41:49.391Z,62.76
2019-06-10T08:42:49.251Z,61.83
2019-06-10T08:43:49.243Z,61.72
2019-06-10T08:44:49.258Z,60.02
2019-06-10T08:45:49.217Z,62.80
2019-06-10T08:46:49.206Z,61.00
2019-06-10T08:47:49.277Z,64.58
2019-06-10T08:48:49.612Z,63.07
2019-06-10T08:49:49.263Z,60.47
2019-06-10T08:50:50.184Z,61.17
2019-06-10T08:51:50.228Z,60.77
2019-06-10T08:53:05.674Z,62.37
2019-06-10T08:53:52.907Z,62.47
2019-06-10T08:54:51.055Z,60.97
2019-06-10T08:55:50.277Z,62.44
2019-06-10T08:56:50.885Z,64.45
2019-06-10T08:57:51.628Z,62.14
2019-06-10T08:58:50.825Z,60.41
2019-06-10T08:59:49.401Z,62.51
2019-06-10T09:00:49.552Z,61.41
2019-06-10T09:01:53.686Z,59.91
2019-06-10T09:02:53.677Z,60.08
2019-06-10T09:03:50.484Z,60.38
2019-06-10T09:04:50.568Z,59.68
2019-06-10T09:05:50.692Z,60.05
2019-06-10T09:06:50.740Z,61.55
2019-06-10T09:07:51.077Z,60.28
2019-06-10T09:08:53.891Z,60.48
2019-06-10T09:09:50.367Z,62.28
2019-06-10T09:10:51.606Z,62.48
2019-06-10T09:11:51.327Z,63.98
2019-06-10T09:12:54.193Z,60.18
2019-06-10T09:13:50.332Z,60.08
2019-06-10T09:14:50.628Z,61.38
2019-06-10T09:16:05.960Z,59.95
2019-06-10T09:16:51.400Z,62.15
2019-06-10T09:17:52.093Z,59.35
2019-06-10T09:18:51.207Z,60.22
2019-06-10T09:19:51.022Z,61.55
2019-06-10T09:20:52.682Z,59.72
2019-06-10T09:21:53.384Z,59.49
2019-06-10T09:23:12.994Z,57.42
2019-06-10T09:23:58.492Z,60.79
2019-06-10T09:24:54.918Z,61.40
2019-06-10T09:25:54.507Z,62.26
2019-06-10T09:26:51.385Z,59.56
2019-06-10T09:27:51.516Z,58.76
2019-06-10T09:28:52.730Z,58.26
2019-06-10T09:29:55.172Z,58.47
2019-06-10T09:30:54.046Z,58.99
2019-06-10T09:31:53.278Z,59.19
2019-06-10T09:32:52.859Z,59.49
2019-06-10T09:33:53.639Z,59.59
2019-06-10T09:34:54.772Z,59.86
2019-06-10T09:35:52.805Z,60.36
2019-06-10T09:36:56.001Z,59.66
2019-06-10T09:37:51.671Z,59.44
2019-06-10T09:38:52.768Z,60.14
2019-06-10T09:39:58.032Z,59.44
2019-06-10T09:40:55.463Z,62.90
2019-06-10T09:41:59.731Z,60.28
2019-06-10T09:42:52.377Z,61.27
2019-06-10T09:43:55.742Z,57.48
2019-06-10T09:44:50.879Z,59.85
2019-06-10T09:45:51.365Z,58.45
2019-06-10T09:46:52.040Z,59.35
2019-06-10T09:47:55.567Z,58.15
2019-06-10T09:48:51.814Z,59.12
2019-06-10T09:49:51.435Z,58.53
2019-06-10T09:50:56.644Z,57.03
2019-06-10T09:51:52.768Z,56.93
2019-06-10T09:52:53.427Z,55.63
2019-06-10T09:53:56.353Z,56.13
2019-06-10T09:54:55.686Z,58.23
2019-06-10T09:55:52.445Z,59.32
2019-06-10T09:56:50.406Z,62.08
2019-06-10T09:57:53.170Z,56.33
2019-06-10T09:58:51.133Z,55.63
2019-06-10T09:59:54.058Z,55.36
2019-06-10T10:00:57.751Z,57.86
2019-06-10T10:01:52.264Z,56.16
2019-06-10T10:02:52.044Z,59.42
2019-06-10T10:03:54.985Z,55.46
2019-06-10T10:04:52.927Z,56.26
2019-06-10T10:05:59.377Z,56.76
2019-06-10T10:06:52.441Z,57.73
2019-06-10T10:07:51.937Z,58.53
2019-06-10T10:08:52.726Z,56.40
2019-06-10T10:09:51.990Z,56.30
2019-06-10T10:10:52.006Z,54.68
2019-06-10T10:11:51.337Z,54.88
2019-06-10T10:12:51.229Z,54.58
2019-06-10T10:13:49.877Z,53.69
2019-06-10T10:14:50.223Z,56.08
2019-06-10T10:15:48.269Z,56.08
2019-06-10T10:16:52.797Z,55.35
2019-06-10T10:17:49.917Z,50.68
2019-06-10T10:18:52.102Z,51.87
2019-06-10T10:19:50.347Z,53.46
2019-06-10T10:20:49.892Z,54.86
2019-06-10T10:21:50.231Z,54.56
2019-06-10T10:22:50.460Z,52.74
2019-06-10T10:23:59.835Z,53.94
2019-06-10T10:24:49.350Z,54.41
2019-06-10T10:25:49.584Z,51.45
2019-06-10T10:26:50.861Z,50.23
2019-06-10T10:27:51.263Z,52.51
2019-06-10T10:28:50.769Z,50.15
2019-06-10T10:29:49.984Z,50.25
2019-06-10T10:30:50.489Z,52.02
2019-06-10T10:31:50.754Z,51.42
2019-06-10T10:32:50.465Z,52.62
2019-06-10T10:33:48.454Z,52.51
2019-06-10T10:34:49.587Z,51.30
2019-06-10T10:35:49.295Z,52.99
2019-06-10T10:36:48.781Z,52.19
2019-06-10T10:37:48.528Z,51.50
2019-06-10T10:38:48.828Z,54.46
2019-06-10T10:39:49.055Z,54.46
2019-06-10T10:40:50.323Z,51.87
2019-06-10T10:41:48.665Z,52.26
2019-06-10T10:42:55.938Z,51.77
2019-06-10T10:43:51.358Z,51.65
2019-06-10T10:44:51.221Z,54.82
2019-06-10T10:45:51.536Z,54.43
2019-06-10T10:46:49.314Z,54.13
2019-06-10T10:47:48.999Z,52.54
2019-06-10T10:48:49.020Z,54.23
2019-06-10T10:49:49.082Z,54.93
2019-06-10T10:50:49.165Z,53.70
2019-06-10T10:51:49.000Z,52.91
2019-06-10T10:52:48.631Z,54.30
2019-06-10T10:53:56.221Z,52.51
2019-06-10T10:54:49.420Z,54.00
2019-06-10T10:55:49.170Z,53.51
2019-06-10T10:56:49.614Z,53.41
2019-06-10T10:57:47.817Z,51.15
2019-06-10T10:58:49.224Z,51.84
2019-06-10T10:59:47.858Z,49.96
2019-06-10T11:00:49.963Z,50.05
2019-06-10T11:01:47.797Z,50.65
2019-06-10T11:02:50.703Z,53.93
2019-06-10T11:03:49.725Z,52.34
2019-06-10T11:04:48.028Z,51.35
2019-06-10T11:05:49.854Z,51.07
2019-06-10T11:06:47.838Z,52.34
2019-06-10T11:07:47.765Z,52.54
2019-06-10T11:08:48.354Z,51.72
2019-06-10T11:09:48.564Z,52.04
2019-06-10T11:10:49.363Z,51.75
2019-06-10T11:11:48.859Z,52.61
2019-06-10T11:12:49.008Z,50.16
2019-06-10T11:13:47.660Z,50.95
2019-06-10T11:14:47.645Z,51.72
2019-06-10T11:15:49.022Z,51.82
2019-06-10T11:16:49.503Z,50.93
2019-06-10T11:17:47.612Z,52.02
2019-06-10T11:18:47.616Z,50.21
2019-06-10T11:19:47.594Z,49.24
2019-06-10T11:20:47.625Z,50.63
2019-06-10T11:21:47.571Z,51.52
2019-06-10T11:22:47.589Z,53.61
2019-06-10T11:23:48.106Z,53.68
2019-06-10T11:24:48.930Z,51.32
2019-06-10T11:25:47.796Z,51.62
2019-06-10T11:26:47.862Z,52.49
2019-06-10T11:27:48.427Z,52.19
2019-06-10T11:28:47.522Z,52.09
2019-06-10T11:29:48.175Z,50.98
2019-06-10T11:30:47.507Z,52.07
2019-06-10T11:31:48.460Z,51.28
2019-06-10T11:32:47.945Z,50.18
2019-06-10T11:33:48.712Z,50.28
2019-06-10T11:34:47.764Z,52.17
2019-06-10T11:35:48.726Z,49.88
2019-06-10T11:36:47.965Z,50.98
2019-06-10T11:37:48.878Z,49.79
2019-06-10T11:38:48.580Z,52.47
2019-06-10T11:39:48.147Z,51.77
2019-06-10T11:40:47.404Z,51.07
2019-06-10T11:41:48.345Z,52.76
2019-06-10T11:42:48.339Z,50.95
2019-06-10T11:43:48.384Z,49.46
2019-06-10T11:44:48.394Z,50.85
2019-06-10T11:45:51.175Z,52.14
2019-06-10T11:46:48.619Z,48.57
2019-06-10T11:47:47.310Z,47.49
2019-06-10T11:48:47.304Z,48.75
2019-06-10T11:49:47.304Z,48.67
2019-06-10T11:50:47.295Z,51.84
2019-06-10T11:51:47.288Z,51.65
2019-06-10T11:52:47.588Z,52.14
2019-06-10T11:53:47.456Z,52.24
2019-06-10T11:54:55.604Z,51.54
2019-06-10T11:55:48.253Z,47.68
2019-06-10T11:56:47.738Z,52.34
2019-06-10T11:57:47.858Z,52.14
2019-06-10T11:58:47.889Z,52.56
2019-06-10T11:59:48.009Z,51.54
2019-06-10T12:00:48.684Z,50.76
2019-06-10T12:01:49.791Z,50.38
2019-06-10T12:02:48.250Z,52.54
2019-06-10T12:03:48.364Z,52.54
2019-06-10T12:04:48.350Z,51.65
2019-06-10T12:05:48.954Z,49.24
2019-06-10T12:06:47.136Z,52.22
2019-06-10T12:07:47.112Z,51.62
2019-06-10T12:08:47.096Z,50.46
2019-06-10T12:09:47.104Z,50.53
2019-06-10T12:10:47.073Z,51.82
2019-06-10T12:11:47.083Z,51.32
2019-06-10T12:12:47.058Z,51.54
2019-06-10T12:13:47.070Z,50.93
2019-06-10T12:14:47.033Z,52.02
2019-06-10T12:16:42.461Z,49.37
2019-06-10T12:17:17.546Z,51.87
2019-06-10T12:17:52.684Z,51.67
2019-06-10T12:18:49.043Z,51.47
2019-06-10T12:19:46.999Z,51.37
2019-06-10T12:20:46.981Z,50.38
2019-06-10T12:21:47.008Z,50.68
2019-06-10T12:22:46.980Z,51.28
2019-06-10T12:23:46.953Z,52.37
2019-06-10T12:24:46.941Z,51.57
2019-06-10T12:25:48.015Z,51.37
2019-06-10T12:26:46.933Z,50.65
2019-06-10T12:27:46.908Z,50.16
2019-06-10T12:28:46.901Z,50.76
2019-06-10T12:29:46.891Z,50.65
2019-06-10T12:30:46.869Z,49.27
2019-06-10T12:31:46.884Z,49.17
2019-06-10T12:32:46.849Z,50.43
2019-06-10T12:33:46.846Z,48.97
2019-06-10T12:34:46.829Z,48.75
2019-06-10T12:35:46.819Z,48.77
2019-06-10T12:36:46.830Z,49.46
2019-06-10T12:37:46.815Z,50.56
2019-06-10T12:38:46.789Z,47.19
2019-06-10T12:39:46.783Z,50.76
2019-06-10T12:40:46.768Z,52.73
2019-06-10T12:41:46.778Z,52.84
2019-06-10T12:42:46.759Z,50.53
2019-06-10T12:43:46.737Z,51.05
2019-06-10T12:44:46.727Z,52.73
2019-06-10T12:45:46.716Z,51.15
2019-06-10T12:46:46.738Z,52.12
2019-06-10T12:47:46.693Z,53.80
2019-06-10T12:48:46.681Z,53.01
2019-06-10T12:49:46.674Z,52.22
2019-06-10T12:50:46.661Z,51.52
2019-06-10T12:51:46.656Z,52.04
2019-06-10T12:52:46.666Z,52.34